Time;durP1;ratioP1;P1;durP2;ratioP2;P2;SDS_P1;SDS_P2;PMS_P1;PMS_P2;Temp;Humidity;BMP_temperature;BMP_pressure;BME280_temperature;BME280_humidity;BME280_pressure;Samples;Min_cycle;Max_cycle;Signal;HPM_P1;HPM_P2
2023/09/17 15:33:32;;;;;;;21.55;19.50;;;23.50;99.90;;;;;;5110042;27;20964;-28
2023/09/17 15:35:59;;;;;;;22.80;20.50;;;23.20;99.90;;;;;;5118646;27;20044;-28
2023/09/17 15:38:25;;;;;;;22.27;20.10;;;23.10;99.90;;;;;;5104917;28;20032;-29
2023/09/17 15:40:51;;;;;;;21.80;19.60;;;23.00;99.90;;;;;;5105652;28;20042;-28
2023/09/17 15:43:18;;;;;;;21.73;19.52;;;23.00;99.90;;;;;;5104404;28;20402;-30
2023/09/17 15:45:44;;;;;;;21.45;19.25;;;22.90;99.90;;;;;;5103636;28;20040;-29
2023/09/17 15:48:10;;;;;;;21.58;19.40;;;22.80;99.90;;;;;;5105463;27;20044;-27
2023/09/17 15:50:36;;;;;;;22.48;20.25;;;22.90;99.90;;;;;;5099488;28;20036;-28
2023/09/17 15:53:02;;;;;;;21.73;19.70;;;22.80;99.90;;;;;;5105341;28;20401;-33
2023/09/17 15:55:28;;;;;;;21.83;19.58;;;22.80;99.90;;;;;;5098765;28;20031;-28
2023/09/17 15:57:54;;;;;;;21.10;19.00;;;22.80;99.90;;;;;;5109003;28;20036;-32
2023/09/17 16:00:20;;;;;;;22.15;20.15;;;22.70;99.90;;;;;;5103194;27;20028;-29
2023/09/17 16:02:46;;;;;;;20.05;18.10;;;22.60;99.90;;;;;;5107560;28;20032;-27
2023/09/17 16:05:12;;;;;;;20.63;18.58;;;22.60;99.90;;;;;;5110632;28;20040;-26
2023/09/17 16:07:42;;;;;;;19.77;17.75;;;22.60;99.90;;;;;;5110623;28;20402;-26
2023/09/17 16:10:09;;;;;;;19.80;17.88;;;22.50;99.90;;;;;;5110155;28;20096;-27
2023/09/17 16:12:35;;;;;;;18.63;16.88;;;22.40;99.90;;;;;;5108979;28;20104;-26
2023/09/17 16:15:02;;;;;;;17.17;15.57;;;22.50;99.90;;;;;;5110064;28;20115;-27
2023/09/17 16:17:28;;;;;;;17.65;16.00;;;22.50;99.90;;;;;;5110123;28;20032;-26
2023/09/17 16:19:55;;;;;;;17.75;16.05;;;22.60;99.90;;;;;;5109908;28;20368;-27
2023/09/17 16:22:25;;;;;;;16.63;14.93;;;22.60;99.90;;;;;;5108905;28;20119;-26
2023/09/17 16:24:51;;;;;;;17.45;15.93;;;22.60;99.90;;;;;;5110164;28;20036;-31
2023/09/17 16:27:17;;;;;;;16.77;15.07;;;22.60;99.90;;;;;;5100399;28;20119;-30
2023/09/17 16:29:42;;;;;;;15.40;13.90;;;22.60;99.90;;;;;;5103138;28;20135;-30
2023/09/17 16:32:11;;;;;;;15.23;13.82;;;22.50;99.90;;;;;;5106721;28;20043;-30
2023/09/17 16:34:37;;;;;;;16.23;14.68;;;22.50;99.90;;;;;;5105490;28;20035;-31
2023/09/17 16:37:07;;;;;;;15.82;13.88;;;22.40;99.90;;;;;;5099632;28;20529;-32
2023/09/17 16:39:33;;;;;;;15.45;14.07;;;22.40;99.90;;;;;;5102805;28;20109;-31
2023/09/17 16:41:59;;;;;;;15.57;13.90;;;22.30;99.90;;;;;;5094574;28;20052;-29
2023/09/17 16:44:26;;;;;;;15.10;13.60;;;22.30;99.90;;;;;;5089335;28;20044;-28
2023/09/17 16:46:52;;;;;;;14.57;13.18;;;22.20;99.90;;;;;;5091962;28;20453;-29
2023/09/17 16:49:18;;;;;;;14.90;13.50;;;22.10;99.90;;;;;;5089050;28;20098;-28
2023/09/17 16:51:46;;;;;;;16.77;15.18;;;22.10;99.90;;;;;;5086416;28;20044;-31
2023/09/17 16:54:12;;;;;;;14.85;13.55;;;22.00;99.90;;;;;;5087218;28;20052;-33
2023/09/17 16:56:41;;;;;;;15.80;14.30;;;22.00;99.90;;;;;;5088018;28;20123;-33
2023/09/17 16:59:07;;;;;;;17.42;13.45;;;21.90;99.90;;;;;;5090528;28;20040;-32
2023/09/17 17:01:37;;;;;;;14.45;13.05;;;21.90;99.90;;;;;;5088244;28;20043;-31
2023/09/17 17:04:03;;;;;;;17.23;15.63;;;21.80;99.90;;;;;;5085245;28;20074;-32
2023/09/17 17:06:29;;;;;;;15.55;14.02;;;21.70;99.90;;;;;;5073588;28;20039;-32
2023/09/17 17:08:55;;;;;;;16.23;14.73;;;21.70;99.90;;;;;;5094939;28;20044;-33
2023/09/17 17:11:24;;;;;;;15.05;13.50;;;21.60;99.90;;;;;;5089913;28;20037;-31
2023/09/17 17:13:51;;;;;;;14.13;12.65;;;21.50;99.90;;;;;;5091777;28;20575;-33
2023/09/17 17:16:16;;;;;;;15.40;13.93;;;21.40;99.90;;;;;;5076293;28;20488;-33
2023/09/17 17:18:42;;;;;;;14.38;12.98;;;21.30;99.90;;;;;;5072847;28;20036;-33
2023/09/17 17:21:09;;;;;;;13.57;12.10;;;21.10;99.90;;;;;;5090039;28;20039;-31
2023/09/17 17:23:36;;;;;;;14.63;13.23;;;21.00;99.90;;;;;;5093068;28;20074;-32
2023/09/17 17:26:02;;;;;;;14.30;12.60;;;20.90;99.90;;;;;;5091405;28;20035;-31
2023/09/17 17:28:28;;;;;;;14.65;13.23;;;20.80;99.90;;;;;;5088692;28;20044;-33
2023/09/17 17:30:55;;;;;;;14.98;13.50;;;20.70;99.90;;;;;;5087345;28;20541;-32
2023/09/17 17:33:20;;;;;;;14.20;12.95;;;20.70;99.90;;;;;;5086749;28;20511;-31
2023/09/17 17:35:46;;;;;;;13.88;12.57;;;20.60;99.90;;;;;;5089777;28;20299;-30
2023/09/17 17:38:12;;;;;;;14.57;13.07;;;20.50;99.90;;;;;;5086250;28;20403;-33
2023/09/17 17:40:38;;;;;;;13.98;12.57;;;20.40;99.90;;;;;;5089079;28;20078;-32
2023/09/17 17:43:04;;;;;;;14.73;13.43;;;20.30;99.90;;;;;;5087711;28;20375;-34
2023/09/17 17:45:37;;;;;;;15.13;13.52;;;20.30;99.90;;;;;;5084814;28;20118;-32
2023/09/17 17:48:17;;;;;;;15.18;13.55;;;20.20;99.90;;;;;;5085243;28;20176;-32
2023/09/17 17:50:44;;;;;;;14.70;13.20;;;20.20;99.90;;;;;;5083777;28;20091;-33
2023/09/17 17:53:12;;;;;;;15.25;13.82;;;20.00;99.90;;;;;;5084456;28;20049;-33
2023/09/17 17:55:38;;;;;;;15.65;14.13;;;20.00;99.90;;;;;;5085523;28;20042;-35
2023/09/17 17:58:04;;;;;;;14.90;13.45;;;19.90;99.90;;;;;;5090823;28;20032;-32
2023/09/17 18:00:31;;;;;;;15.52;14.02;;;19.90;99.90;;;;;;5089076;28;20443;-32
2023/09/17 18:02:56;;;;;;;16.15;14.55;;;19.80;99.90;;;;;;5095468;28;20075;-32
2023/09/17 18:05:24;;;;;;;16.42;14.88;;;19.80;99.90;;;;;;5083449;28;20072;-32
2023/09/17 18:07:50;;;;;;;16.98;15.38;;;19.70;99.90;;;;;;5085530;28;20040;-31
2023/09/17 18:10:16;;;;;;;17.35;15.57;;;19.70;99.90;;;;;;5091163;28;20332;-31
2023/09/17 18:12:42;;;;;;;16.63;15.07;;;19.60;99.90;;;;;;5089679;28;20047;-32
2023/09/17 18:15:09;;;;;;;17.92;16.27;;;19.60;99.90;;;;;;5092400;27;20039;-32
2023/09/17 18:17:36;;;;;;;18.30;16.50;;;19.60;99.90;;;;;;5083209;28;20507;-32
2023/09/17 18:20:02;;;;;;;18.63;16.83;;;19.50;99.90;;;;;;5084557;28;20041;-31
2023/09/17 18:22:29;;;;;;;18.33;16.55;;;19.50;99.90;;;;;;5083958;28;20039;-31
2023/09/17 18:24:55;;;;;;;19.98;18.17;;;19.40;99.90;;;;;;5085858;28;20127;-32
2023/09/17 18:27:21;;;;;;;19.17;17.27;;;19.40;99.90;;;;;;5087355;28;20063;-34
2023/09/17 18:29:47;;;;;;;19.30;17.35;;;19.40;99.90;;;;;;5080737;28;20111;-34
2023/09/17 18:32:13;;;;;;;19.98;18.10;;;19.30;99.90;;;;;;5087083;28;20161;-33
2023/09/17 18:34:39;;;;;;;19.80;17.77;;;19.30;99.90;;;;;;5087002;28;20039;-31
2023/09/17 18:37:08;;;;;;;19.20;17.17;;;19.30;99.90;;;;;;5089261;28;20036;-30
2023/09/17 18:39:34;;;;;;;21.98;17.25;;;19.20;99.90;;;;;;5086008;28;20075;-32
2023/09/17 18:42:00;;;;;;;18.25;16.45;;;19.20;99.90;;;;;;5086132;28;20068;-30
2023/09/17 18:44:28;;;;;;;20.67;18.48;;;19.20;99.90;;;;;;5088560;28;20165;-33
2023/09/17 18:46:55;;;;;;;18.75;16.88;;;19.10;99.90;;;;;;5082755;28;20091;-30
2023/09/17 18:49:21;;;;;;;18.95;17.05;;;19.10;99.90;;;;;;5082851;28;20047;-30
2023/09/17 18:51:47;;;;;;;23.27;20.85;;;19.10;99.90;;;;;;5087755;28;20040;-32
2023/09/17 18:54:14;;;;;;;20.52;18.45;;;19.00;99.90;;;;;;5087115;28;20043;-32
2023/09/17 18:56:41;;;;;;;20.70;18.55;;;19.00;99.90;;;;;;5089454;28;20120;-34
2023/09/17 18:59:09;;;;;;;20.08;18.17;;;19.00;99.90;;;;;;5069303;28;20450;-31
2023/09/17 19:01:36;;;;;;;20.83;18.73;;;18.90;99.90;;;;;;5089816;28;20544;-33
2023/09/17 19:04:08;;;;;;;21.70;19.50;;;18.90;99.90;;;;;;5086724;28;20643;-32
2023/09/17 19:06:34;;;;;;;24.65;22.25;;;18.80;99.90;;;;;;5087153;28;20115;-31
2023/09/17 19:09:02;;;;;;;22.05;19.95;;;18.80;99.90;;;;;;5087354;28;20032;-34
2023/09/17 19:11:28;;;;;;;22.15;19.95;;;18.80;99.90;;;;;;5085153;28;20418;-32
2023/09/17 19:13:54;;;;;;;20.75;18.70;;;18.70;99.90;;;;;;5088662;28;20487;-33
2023/09/17 19:16:21;;;;;;;22.50;20.20;;;18.70;99.90;;;;;;5083022;28;20046;-30
2023/09/17 19:18:46;;;;;;;21.38;19.17;;;18.60;99.90;;;;;;5085962;28;20119;-32
2023/09/17 19:21:15;;;;;;;22.48;20.35;;;18.60;99.90;;;;;;5073037;28;20118;-31
2023/09/17 19:23:43;;;;;;;20.90;18.70;;;18.60;99.90;;;;;;5086119;28;20028;-34
2023/09/17 19:26:11;;;;;;;24.05;21.42;;;18.50;99.90;;;;;;5079473;28;20043;-30
2023/09/17 19:28:41;;;;;;;21.80;19.60;;;18.50;99.90;;;;;;5091053;28;20076;-32
2023/09/17 19:31:11;;;;;;;22.98;20.67;;;18.50;99.90;;;;;;5087191;28;20367;-31
2023/09/17 19:33:38;;;;;;;24.90;22.27;;;18.40;99.90;;;;;;5085755;28;20525;-30
2023/09/17 19:36:04;;;;;;;28.00;25.17;;;18.40;99.90;;;;;;5090614;28;20031;-31
2023/09/17 19:38:30;;;;;;;24.90;22.30;;;18.30;99.90;;;;;;5087310;28;20036;-34
2023/09/17 19:40:56;;;;;;;21.77;19.67;;;18.30;99.90;;;;;;5095157;28;20794;-32
2023/09/17 19:43:22;;;;;;;26.20;22.67;;;18.30;99.90;;;;;;5091736;28;20091;-31
2023/09/17 19:45:52;;;;;;;24.75;22.10;;;18.30;99.90;;;;;;5076196;28;20079;-32
2023/09/17 19:48:18;;;;;;;24.67;22.08;;;18.20;99.90;;;;;;5084229;28;20137;-32
2023/09/17 19:50:45;;;;;;;24.02;21.63;;;18.10;99.90;;;;;;5079231;28;20036;-31
2023/09/17 19:53:11;;;;;;;25.27;22.73;;;18.10;99.90;;;;;;5089554;28;20044;-34
2023/09/17 19:55:37;;;;;;;23.38;20.95;;;18.10;99.90;;;;;;5085026;28;20036;-31
2023/09/17 19:58:03;;;;;;;27.00;23.98;;;18.10;99.90;;;;;;5086616;28;20060;-30
2023/09/17 20:00:31;;;;;;;25.27;22.77;;;18.00;99.90;;;;;;5087341;28;20072;-30
2023/09/17 20:02:59;;;;;;;25.10;22.48;;;17.90;99.90;;;;;;5083626;28;20036;-32
2023/09/17 20:05:27;;;;;;;24.63;21.50;;;17.90;99.90;;;;;;5086886;28;20040;-33
2023/09/17 20:07:54;;;;;;;25.65;22.85;;;17.80;99.90;;;;;;5084628;28;20509;-32
2023/09/17 20:10:19;;;;;;;22.80;20.45;;;17.80;99.90;;;;;;5089426;28;20036;-26
2023/09/17 20:12:46;;;;;;;24.45;21.95;;;17.80;99.90;;;;;;5093316;28;20047;-26
2023/09/17 20:15:17;;;;;;;23.63;21.17;;;17.70;99.90;;;;;;5093640;28;20040;-26
2023/09/17 20:17:43;;;;;;;23.60;21.10;;;17.70;99.90;;;;;;5091591;28;20040;-26
2023/09/17 20:20:10;;;;;;;24.55;22.05;;;17.70;99.90;;;;;;5096175;28;20039;-28
2023/09/17 20:22:44;;;;;;;26.65;23.83;;;17.60;99.90;;;;;;5096506;28;20461;-27
2023/09/17 20:25:10;;;;;;;27.67;24.67;;;17.60;99.90;;;;;;5095971;28;20039;-26
2023/09/17 20:27:37;;;;;;;23.80;21.08;;;17.60;99.90;;;;;;5096259;28;20054;-26
2023/09/17 20:30:04;;;;;;;24.58;21.17;;;17.60;99.90;;;;;;5096737;28;20028;-26
2023/09/17 20:32:31;;;;;;;26.27;22.42;;;17.60;99.90;;;;;;5096415;28;20101;-25
2023/09/17 20:34:57;;;;;;;25.77;23.02;;;17.60;99.90;;;;;;5096373;28;20032;-27
2023/09/17 20:37:22;;;;;;;25.75;22.98;;;17.60;99.90;;;;;;5095432;28;20039;-27
2023/09/17 20:39:49;;;;;;;26.95;23.98;;;17.60;99.90;;;;;;5096001;28;20483;-25
2023/09/17 20:42:14;;;;;;;29.23;25.92;;;17.50;99.90;;;;;;5096150;28;20386;-26
2023/09/17 20:44:40;;;;;;;25.80;23.17;;;17.50;99.90;;;;;;5096960;28;20040;-26
2023/09/17 20:47:06;;;;;;;25.05;22.13;;;17.50;99.90;;;;;;5096322;28;20063;-27
2023/09/17 20:49:32;;;;;;;26.83;23.38;;;17.50;99.90;;;;;;5095793;28;20036;-25
2023/09/17 20:51:58;;;;;;;25.98;23.23;;;17.50;99.90;;;;;;5096098;28;20036;-26
2023/09/17 20:54:24;;;;;;;27.20;24.30;;;17.50;99.90;;;;;;5096426;28;20036;-26
2023/09/17 20:56:49;;;;;;;25.02;22.42;;;17.50;99.90;;;;;;5095873;28;20522;-26
2023/09/17 20:59:15;;;;;;;25.20;22.67;;;17.50;99.90;;;;;;5095476;28;20447;-25
2023/09/17 21:01:41;;;;;;;36.38;30.05;;;17.50;99.90;;;;;;5095573;28;20499;-25
2023/09/17 21:04:08;;;;;;;26.45;23.50;;;17.50;99.90;;;;;;5094710;28;20580;-26
2023/09/17 21:06:33;;;;;;;30.55;26.35;;;17.50;99.90;;;;;;5093717;28;20043;-25
2023/09/17 21:09:00;;;;;;;26.90;24.00;;;17.50;99.90;;;;;;5092995;28;20046;-26
2023/09/17 21:11:26;;;;;;;25.50;22.80;;;17.60;99.90;;;;;;5093411;28;20375;-25
2023/09/17 21:13:54;;;;;;;27.67;24.67;;;17.50;99.90;;;;;;5094495;28;20094;-25
2023/09/17 21:16:20;;;;;;;29.60;26.42;;;17.50;99.90;;;;;;5094689;28;20050;-25
2023/09/17 21:18:46;;;;;;;28.77;25.27;;;17.50;99.90;;;;;;5094494;28;20075;-25
2023/09/17 21:21:12;;;;;;;27.27;24.42;;;17.50;99.90;;;;;;5094615;28;20071;-25
2023/09/17 21:23:38;;;;;;;26.90;23.92;;;17.40;99.90;;;;;;5093995;28;20039;-26
2023/09/17 21:26:10;;;;;;;32.58;26.55;;;17.40;99.90;;;;;;5094580;28;20548;-25
2023/09/17 21:28:37;;;;;;;29.27;24.40;;;17.40;99.90;;;;;;5094388;28;20040;-25
2023/09/17 21:31:03;;;;;;;24.75;22.15;;;17.40;99.90;;;;;;5094107;28;20154;-25
2023/09/17 21:33:28;;;;;;;26.75;23.80;;;17.40;99.90;;;;;;5093955;28;20123;-28
2023/09/17 21:35:54;;;;;;;30.85;26.50;;;17.40;99.90;;;;;;5093932;28;20044;-25
2023/09/17 21:38:20;;;;;;;26.13;23.25;;;17.30;99.90;;;;;;5093815;28;20495;-26
2023/09/17 21:40:45;;;;;;;25.58;22.92;;;17.30;99.90;;;;;;5094112;28;20036;-26
2023/09/17 21:43:11;;;;;;;24.58;22.10;;;17.30;99.90;;;;;;5094143;28;20406;-26
2023/09/17 21:45:37;;;;;;;26.10;22.98;;;17.30;99.90;;;;;;5093812;28;20047;-25
2023/09/17 21:48:03;;;;;;;24.90;22.30;;;17.30;99.90;;;;;;5093945;28;20055;-25
2023/09/17 21:50:28;;;;;;;24.35;21.85;;;17.20;99.90;;;;;;5093560;28;20044;-26
2023/09/17 21:52:54;;;;;;;24.70;22.05;;;17.20;99.90;;;;;;5092220;28;20077;-26
2023/09/17 21:55:19;;;;;;;26.10;22.08;;;17.20;99.90;;;;;;5093858;28;20039;-25
2023/09/17 21:57:45;;;;;;;22.98;20.55;;;17.20;99.90;;;;;;5093661;28;20040;-27
2023/09/17 22:00:21;;;;;;;24.88;21.90;;;17.10;99.90;;;;;;5093818;28;20040;-25
2023/09/17 22:02:50;;;;;;;23.85;21.40;;;17.10;99.90;;;;;;5093361;28;20502;-25
2023/09/17 22:05:20;;;;;;;24.02;21.45;;;17.10;99.90;;;;;;5093840;28;20494;-26
2023/09/17 22:07:46;;;;;;;24.83;21.58;;;17.10;99.90;;;;;;5093263;28;20403;-25
2023/09/17 22:10:11;;;;;;;24.55;21.95;;;17.10;99.90;;;;;;5093282;28;20048;-25
2023/09/17 22:12:37;;;;;;;24.70;22.20;;;17.10;99.90;;;;;;5092531;28;20052;-25
2023/09/17 22:15:06;;;;;;;24.98;22.42;;;17.10;99.90;;;;;;5093658;28;20032;-25
2023/09/17 22:17:33;;;;;;;25.10;22.40;;;17.20;99.90;;;;;;5092033;28;20035;-25
2023/09/17 22:20:00;;;;;;;25.55;22.20;;;17.10;99.90;;;;;;5093486;28;20050;-26
2023/09/17 22:22:26;;;;;;;24.42;21.83;;;17.20;99.90;;;;;;5092974;28;20048;-25
2023/09/17 22:24:52;;;;;;;26.48;23.02;;;17.10;99.90;;;;;;5091747;28;20090;-25
2023/09/17 22:27:18;;;;;;;25.45;22.77;;;17.10;99.90;;;;;;5093152;28;20075;-26
2023/09/17 22:29:44;;;;;;;25.60;23.00;;;17.10;99.90;;;;;;5092705;28;20148;-25
2023/09/17 22:32:10;;;;;;;25.55;22.70;;;17.10;99.90;;;;;;5092734;28;20032;-25
2023/09/17 22:34:36;;;;;;;24.45;21.98;;;17.10;99.90;;;;;;5093138;28;20040;-26
2023/09/17 22:37:02;;;;;;;23.60;20.95;;;17.10;99.90;;;;;;5093032;28;20032;-25
2023/09/17 22:39:28;;;;;;;23.92;19.80;;;17.10;99.90;;;;;;5093051;28;20039;-25
2023/09/17 22:41:53;;;;;;;24.15;19.98;;;17.10;99.90;;;;;;5092534;28;20063;-25
2023/09/17 22:44:19;;;;;;;22.25;19.35;;;17.10;99.90;;;;;;5093058;28;20078;-25
2023/09/17 22:46:45;;;;;;;21.05;18.85;;;17.10;99.90;;;;;;5092826;28;20123;-25
2023/09/17 22:49:10;;;;;;;22.88;19.55;;;17.10;99.90;;;;;;5092937;28;20483;-25
2023/09/17 22:51:36;;;;;;;23.77;20.65;;;17.10;99.90;;;;;;5091346;28;20514;-25
2023/09/17 22:54:02;;;;;;;22.20;19.75;;;17.10;99.90;;;;;;5092874;28;20059;-26
2023/09/17 22:56:28;;;;;;;24.75;21.00;;;17.10;99.90;;;;;;5092530;28;20040;-25
2023/09/17 22:58:53;;;;;;;23.83;21.42;;;17.10;99.90;;;;;;5092409;28;20036;-25
2023/09/17 23:01:19;;;;;;;24.33;21.75;;;17.10;99.90;;;;;;5092596;28;20032;-26
2023/09/17 23:03:46;;;;;;;22.75;20.40;;;17.10;99.90;;;;;;5092422;28;20052;-25
2023/09/17 23:06:12;;;;;;;22.90;20.55;;;17.10;99.90;;;;;;5092701;28;20109;-26
2023/09/17 23:08:39;;;;;;;23.35;20.90;;;17.10;99.90;;;;;;5092417;28;20154;-27
2023/09/17 23:11:05;;;;;;;22.40;20.20;;;17.10;99.90;;;;;;5092579;28;20086;-25
2023/09/17 23:13:32;;;;;;;20.65;18.55;;;17.10;99.90;;;;;;5092249;28;20055;-25
2023/09/17 23:15:58;;;;;;;20.95;18.77;;;17.10;99.90;;;;;;5092612;28;20040;-26
2023/09/17 23:18:27;;;;;;;22.25;20.05;;;17.10;99.90;;;;;;5092053;28;20068;-25
2023/09/17 23:20:53;;;;;;;24.45;21.98;;;17.10;99.90;;;;;;5092431;28;20032;-25
2023/09/17 23:23:19;;;;;;;23.73;21.38;;;17.10;99.90;;;;;;5092181;28;20471;-25
2023/09/17 23:25:45;;;;;;;23.95;21.35;;;17.10;99.90;;;;;;5091992;28;20040;-26
2023/09/17 23:28:11;;;;;;;22.70;20.38;;;17.10;99.90;;;;;;5092001;28;20043;-25
2023/09/17 23:30:38;;;;;;;21.10;19.00;;;17.10;99.90;;;;;;5092267;28;20122;-27
2023/09/17 23:33:04;;;;;;;22.08;19.92;;;17.10;99.90;;;;;;5091985;28;20044;-25
2023/09/17 23:35:30;;;;;;;21.92;19.65;;;17.10;99.90;;;;;;5092187;28;20097;-26
2023/09/17 23:37:56;;;;;;;23.05;20.65;;;17.10;99.90;;;;;;5092218;28;20048;-27
2023/09/17 23:40:24;;;;;;;22.67;20.52;;;17.00;99.90;;;;;;5091798;28;20048;-26
2023/09/17 23:42:50;;;;;;;26.83;23.98;;;17.10;99.90;;;;;;5092294;28;20515;-25
2023/09/17 23:45:17;;;;;;;21.90;19.70;;;17.00;99.90;;;;;;5092175;28;20077;-26
2023/09/17 23:47:46;;;;;;;22.95;20.65;;;17.00;99.90;;;;;;5091844;28;20046;-26
2023/09/17 23:50:14;;;;;;;23.80;21.35;;;17.00;99.90;;;;;;5091995;28;20530;-25
2023/09/17 23:52:44;;;;;;;24.10;21.50;;;17.00;99.90;;;;;;5091713;28;20040;-25
2023/09/17 23:55:10;;;;;;;25.20;22.42;;;17.00;99.90;;;;;;5096115;28;20040;-25
2023/09/17 23:57:36;;;;;;;22.80;20.55;;;17.00;99.90;;;;;;5096018;28;20036;-27
